KSVH/SVH METAR and TAF weather

Enter ICAO airport designator
Station Type Date Time Source
KSVH METAR 2022/12/08 13:15 UTC NOAA

KSVH 081315Z AUTO 00000KT 2SM BR BKN065 11/11 A3023 RMK AO2 P0001 T01140111


Station Type Date Time Source
KSVH Decoded METAR 2022/12/08 13:15 UTC NOAA

Statesville, Statesville Municipal Airport, NC, United States (KSVH) 35-45-55N 080-57-24W
Dec 08, 2022 - 08:15 AM EST / 2022.12.08 1315 UTC
Wind: Calm:0
Visibility: 2 mile(s):0
Sky conditions: mostly cloudy
Weather: mist
Precipitation last hour: 0.01 inches
Temperature: 52.5 F (11.4 C)
Dew Point: 52.0 F (11.1 C)
Relative Humidity: 98%
Pressure (altimeter): 30.23 in. Hg (1023 hPa)
ob: KSVH 081315Z AUTO 00000KT 2SM BR BKN065 11/11 A3023 RMK AO2 P0001 T01140111
cycle: 13

Station Type Date Time Source
KSVH TAF UTC NOAA

Error!

Example: see airport list